sensor_id;sensor_type;location;lat;lon;timestamp;P1;durP1;ratioP1;P2;durP2;ratioP2
46447;SDS011;32145;50.390;30.778;2023-04-24T00:00:43;10.40;;;5.97;;
46447;SDS011;32145;50.390;30.778;2023-04-24T00:03:39;6.78;;;4.65;;
46447;SDS011;32145;50.390;30.778;2023-04-24T00:06:34;10.45;;;4.82;;
46447;SDS011;32145;50.390;30.778;2023-04-24T00:09:28;8.40;;;5.03;;
46447;SDS011;32145;50.390;30.778;2023-04-24T00:12:23;7.88;;;5.07;;
46447;SDS011;32145;50.390;30.778;2023-04-24T00:15:17;8.55;;;4.72;;
46447;SDS011;32145;50.390;30.778;2023-04-24T00:18:13;9.15;;;5.00;;
46447;SDS011;32145;50.390;30.778;2023-04-24T00:21:11;8.82;;;5.10;;
46447;SDS011;32145;50.390;30.778;2023-04-24T00:24:07;7.13;;;4.68;;
46447;SDS011;32145;50.390;30.778;2023-04-24T00:27:04;8.95;;;5.05;;
46447;SDS011;32145;50.390;30.778;2023-04-24T00:29:58;8.70;;;4.80;;
46447;SDS011;32145;50.390;30.778;2023-04-24T00:32:52;8.35;;;5.10;;
46447;SDS011;32145;50.390;30.778;2023-04-24T00:35:47;12.63;;;4.60;;
46447;SDS011;32145;50.390;30.778;2023-04-24T00:38:42;8.32;;;4.93;;
46447;SDS011;32145;50.390;30.778;2023-04-24T00:41:37;8.25;;;4.80;;
46447;SDS011;32145;50.390;30.778;2023-04-24T00:44:31;9.60;;;5.63;;
46447;SDS011;32145;50.390;30.778;2023-04-24T00:47:26;7.45;;;4.75;;
46447;SDS011;32145;50.390;30.778;2023-04-24T00:50:21;9.23;;;5.85;;
46447;SDS011;32145;50.390;30.778;2023-04-24T00:53:15;10.70;;;6.07;;
46447;SDS011;32145;50.390;30.778;2023-04-24T00:56:11;9.70;;;6.15;;
46447;SDS011;32145;50.390;30.778;2023-04-24T00:59:06;12.60;;;6.20;;
46447;SDS011;32145;50.390;30.778;2023-04-24T01:02:01;10.55;;;6.00;;
46447;SDS011;32145;50.390;30.778;2023-04-24T01:04:55;12.02;;;6.72;;
46447;SDS011;32145;50.390;30.778;2023-04-24T01:07:50;10.75;;;5.40;;
46447;SDS011;32145;50.390;30.778;2023-04-24T01:10:44;10.85;;;5.70;;
46447;SDS011;32145;50.390;30.778;2023-04-24T01:13:42;10.10;;;5.88;;
46447;SDS011;32145;50.390;30.778;2023-04-24T01:16:36;11.60;;;6.07;;
46447;SDS011;32145;50.390;30.778;2023-04-24T01:19:31;11.55;;;5.55;;
46447;SDS011;32145;50.390;30.778;2023-04-24T01:22:27;8.88;;;5.57;;
46447;SDS011;32145;50.390;30.778;2023-04-24T01:25:21;10.88;;;5.53;;
46447;SDS011;32145;50.390;30.778;2023-04-24T01:28:16;10.35;;;5.53;;
46447;SDS011;32145;50.390;30.778;2023-04-24T01:31:10;9.52;;;5.47;;
46447;SDS011;32145;50.390;30.778;2023-04-24T01:34:04;14.73;;;5.63;;
46447;SDS011;32145;50.390;30.778;2023-04-24T01:36:59;13.68;;;5.40;;
46447;SDS011;32145;50.390;30.778;2023-04-24T01:39:55;10.60;;;5.53;;
46447;SDS011;32145;50.390;30.778;2023-04-24T01:42:51;10.40;;;5.65;;
46447;SDS011;32145;50.390;30.778;2023-04-24T01:45:48;10.45;;;6.07;;
46447;SDS011;32145;50.390;30.778;2023-04-24T01:48:44;10.07;;;5.70;;
46447;SDS011;32145;50.390;30.778;2023-04-24T01:51:41;12.13;;;6.28;;
46447;SDS011;32145;50.390;30.778;2023-04-24T01:54:37;12.75;;;6.03;;
46447;SDS011;32145;50.390;30.778;2023-04-24T01:57:35;11.50;;;6.78;;
46447;SDS011;32145;50.390;30.778;2023-04-24T02:00:31;10.77;;;6.18;;
46447;SDS011;32145;50.390;30.778;2023-04-24T02:03:27;9.38;;;5.47;;
46447;SDS011;32145;50.390;30.778;2023-04-24T02:06:24;9.70;;;5.90;;
46447;SDS011;32145;50.390;30.778;2023-04-24T02:09:20;11.52;;;6.25;;
46447;SDS011;32145;50.390;30.778;2023-04-24T02:12:15;11.88;;;6.30;;
46447;SDS011;32145;50.390;30.778;2023-04-24T02:15:11;11.40;;;5.70;;
46447;SDS011;32145;50.390;30.778;2023-04-24T02:18:05;7.95;;;5.30;;
46447;SDS011;32145;50.390;30.778;2023-04-24T02:20:59;8.10;;;5.40;;
46447;SDS011;32145;50.390;30.778;2023-04-24T02:23:54;11.73;;;5.88;;
46447;SDS011;32145;50.390;30.778;2023-04-24T02:26:48;9.07;;;5.63;;
46447;SDS011;32145;50.390;30.778;2023-04-24T02:29:43;9.68;;;5.32;;
46447;SDS011;32145;50.390;30.778;2023-04-24T02:32:38;13.32;;;5.70;;
46447;SDS011;32145;50.390;30.778;2023-04-24T02:35:32;10.05;;;5.80;;
46447;SDS011;32145;50.390;30.778;2023-04-24T02:38:27;9.77;;;5.20;;
46447;SDS011;32145;50.390;30.778;2023-04-24T02:41:21;10.85;;;5.90;;
46447;SDS011;32145;50.390;30.778;2023-04-24T02:44:16;12.90;;;5.68;;
46447;SDS011;32145;50.390;30.778;2023-04-24T02:47:10;9.15;;;5.22;;
46447;SDS011;32145;50.390;30.778;2023-04-24T02:50:07;9.77;;;5.95;;
46447;SDS011;32145;50.390;30.778;2023-04-24T02:53:01;12.13;;;6.25;;
46447;SDS011;32145;50.390;30.778;2023-04-24T02:55:55;12.30;;;7.18;;
46447;SDS011;32145;50.390;30.778;2023-04-24T02:58:52;13.63;;;7.43;;
46447;SDS011;32145;50.390;30.778;2023-04-24T03:01:48;14.48;;;8.05;;
46447;SDS011;32145;50.390;30.778;2023-04-24T03:04:44;14.85;;;7.72;;
46447;SDS011;32145;50.390;30.778;2023-04-24T03:07:42;12.98;;;7.53;;
46447;SDS011;32145;50.390;30.778;2023-04-24T03:10:38;12.60;;;7.88;;
46447;SDS011;32145;50.390;30.778;2023-04-24T03:13:35;12.00;;;7.40;;
46447;SDS011;32145;50.390;30.778;2023-04-24T03:16:29;16.75;;;7.43;;
46447;SDS011;32145;50.390;30.778;2023-04-24T03:19:24;14.25;;;7.20;;
46447;SDS011;32145;50.390;30.778;2023-04-24T03:22:21;12.30;;;7.13;;
46447;SDS011;32145;50.390;30.778;2023-04-24T03:25:17;11.55;;;7.00;;
46447;SDS011;32145;50.390;30.778;2023-04-24T03:28:13;11.65;;;6.90;;
46447;SDS011;32145;50.390;30.778;2023-04-24T03:31:09;12.60;;;7.53;;
46447;SDS011;32145;50.390;30.778;2023-04-24T03:34:06;13.90;;;7.10;;
46447;SDS011;32145;50.390;30.778;2023-04-24T03:37:02;14.40;;;7.57;;
46447;SDS011;32145;50.390;30.778;2023-04-24T03:39:58;13.13;;;8.10;;
46447;SDS011;32145;50.390;30.778;2023-04-24T03:42:54;11.35;;;7.07;;
46447;SDS011;32145;50.390;30.778;2023-04-24T03:45:48;13.30;;;7.72;;
46447;SDS011;32145;50.390;30.778;2023-04-24T03:48:42;16.08;;;8.45;;
46447;SDS011;32145;50.390;30.778;2023-04-24T03:51:37;12.35;;;7.53;;
46447;SDS011;32145;50.390;30.778;2023-04-24T03:54:33;12.65;;;7.57;;
46447;SDS011;32145;50.390;30.778;2023-04-24T03:57:29;13.68;;;8.07;;
46447;SDS011;32145;50.390;30.778;2023-04-24T04:00:25;15.20;;;8.70;;
46447;SDS011;32145;50.390;30.778;2023-04-24T04:03:19;12.48;;;7.50;;
46447;SDS011;32145;50.390;30.778;2023-04-24T04:06:14;12.75;;;6.72;;
46447;SDS011;32145;50.390;30.778;2023-04-24T04:09:08;9.90;;;5.85;;
46447;SDS011;32145;50.390;30.778;2023-04-24T04:12:03;11.05;;;6.80;;
46447;SDS011;32145;50.390;30.778;2023-04-24T04:14:57;11.05;;;6.70;;
46447;SDS011;32145;50.390;30.778;2023-04-24T04:17:53;11.52;;;6.40;;
46447;SDS011;32145;50.390;30.778;2023-04-24T04:20:47;12.68;;;6.65;;
46447;SDS011;32145;50.390;30.778;2023-04-24T04:23:43;15.60;;;8.60;;
46447;SDS011;32145;50.390;30.778;2023-04-24T04:26:40;15.13;;;8.23;;
46447;SDS011;32145;50.390;30.778;2023-04-24T04:29:36;15.20;;;8.02;;
46447;SDS011;32145;50.390;30.778;2023-04-24T04:32:32;15.73;;;8.32;;
46447;SDS011;32145;50.390;30.778;2023-04-24T04:35:30;16.00;;;8.32;;
46447;SDS011;32145;50.390;30.778;2023-04-24T04:38:24;15.43;;;8.52;;
46447;SDS011;32145;50.390;30.778;2023-04-24T04:41:19;16.13;;;9.20;;
46447;SDS011;32145;50.390;30.778;2023-04-24T04:44:13;16.30;;;9.90;;
46447;SDS011;32145;50.390;30.778;2023-04-24T04:47:07;16.58;;;9.30;;
46447;SDS011;32145;50.390;30.778;2023-04-24T04:50:04;16.08;;;8.77;;
46447;SDS011;32145;50.390;30.778;2023-04-24T04:53:02;12.38;;;7.97;;
46447;SDS011;32145;50.390;30.778;2023-04-24T04:55:59;10.55;;;7.57;;
46447;SDS011;32145;50.390;30.778;2023-04-24T04:58:55;11.90;;;7.63;;
46447;SDS011;32145;50.390;30.778;2023-04-24T05:01:51;11.55;;;7.55;;
46447;SDS011;32145;50.390;30.778;2023-04-24T05:04:48;11.73;;;7.28;;
46447;SDS011;32145;50.390;30.778;2023-04-24T05:07:44;12.50;;;7.90;;
46447;SDS011;32145;50.390;30.778;2023-04-24T05:10:42;13.55;;;8.25;;
46447;SDS011;32145;50.390;30.778;2023-04-24T05:13:36;15.27;;;8.63;;
46447;SDS011;32145;50.390;30.778;2023-04-24T05:16:30;15.38;;;8.82;;
46447;SDS011;32145;50.390;30.778;2023-04-24T05:19:25;13.52;;;8.05;;
46447;SDS011;32145;50.390;30.778;2023-04-24T05:22:19;14.75;;;9.15;;
46447;SDS011;32145;50.390;30.778;2023-04-24T05:25:13;16.98;;;10.20;;
46447;SDS011;32145;50.390;30.778;2023-04-24T05:28:09;17.35;;;10.02;;
46447;SDS011;32145;50.390;30.778;2023-04-24T05:31:03;16.88;;;9.73;;
46447;SDS011;32145;50.390;30.778;2023-04-24T05:33:59;16.35;;;9.70;;
46447;SDS011;32145;50.390;30.778;2023-04-24T05:36:55;17.05;;;8.77;;
46447;SDS011;32145;50.390;30.778;2023-04-24T05:39:51;14.82;;;9.23;;
46447;SDS011;32145;50.390;30.778;2023-04-24T05:42:48;12.25;;;8.48;;
46447;SDS011;32145;50.390;30.778;2023-04-24T05:45:46;16.30;;;8.35;;
46447;SDS011;32145;50.390;30.778;2023-04-24T05:48:42;14.55;;;7.93;;
46447;SDS011;32145;50.390;30.778;2023-04-24T05:51:38;15.02;;;8.05;;
46447;SDS011;32145;50.390;30.778;2023-04-24T05:54:34;13.32;;;7.72;;
46447;SDS011;32145;50.390;30.778;2023-04-24T05:57:31;12.50;;;7.05;;
46447;SDS011;32145;50.390;30.778;2023-04-24T06:00:27;13.98;;;7.32;;
46447;SDS011;32145;50.390;30.778;2023-04-24T06:03:25;12.85;;;7.25;;
46447;SDS011;32145;50.390;30.778;2023-04-24T06:06:21;10.63;;;6.78;;
46447;SDS011;32145;50.390;30.778;2023-04-24T06:09:16;11.65;;;6.78;;
46447;SDS011;32145;50.390;30.778;2023-04-24T06:12:10;11.23;;;6.95;;
46447;SDS011;32145;50.390;30.778;2023-04-24T06:15:07;8.18;;;5.53;;
46447;SDS011;32145;50.390;30.778;2023-04-24T06:18:04;9.57;;;6.20;;
46447;SDS011;32145;50.390;30.778;2023-04-24T06:21:01;10.75;;;6.25;;
46447;SDS011;32145;50.390;30.778;2023-04-24T06:23:57;8.57;;;5.20;;
46447;SDS011;32145;50.390;30.778;2023-04-24T06:26:54;10.68;;;5.18;;
46447;SDS011;32145;50.390;30.778;2023-04-24T06:29:50;11.50;;;5.35;;
46447;SDS011;32145;50.390;30.778;2023-04-24T06:32:46;12.02;;;4.32;;
46447;SDS011;32145;50.390;30.778;2023-04-24T06:35:43;8.40;;;3.60;;
46447;SDS011;32145;50.390;30.778;2023-04-24T06:38:38;5.63;;;3.05;;
46447;SDS011;32145;50.390;30.778;2023-04-24T06:41:33;6.20;;;2.65;;
46447;SDS011;32145;50.390;30.778;2023-04-24T06:44:27;4.15;;;2.80;;
46447;SDS011;32145;50.390;30.778;2023-04-24T06:47:21;4.05;;;2.40;;
46447;SDS011;32145;50.390;30.778;2023-04-24T06:50:16;6.15;;;2.88;;
46447;SDS011;32145;50.390;30.778;2023-04-24T06:53:10;5.80;;;2.88;;
46447;SDS011;32145;50.390;30.778;2023-04-24T06:56:08;5.97;;;3.10;;
46447;SDS011;32145;50.390;30.778;2023-04-24T06:59:04;4.65;;;3.08;;
46447;SDS011;32145;50.390;30.778;2023-04-24T07:02:00;5.45;;;3.45;;
46447;SDS011;32145;50.390;30.778;2023-04-24T07:04:57;6.55;;;3.20;;
46447;SDS011;32145;50.390;30.778;2023-04-24T07:07:53;4.47;;;2.60;;
46447;SDS011;32145;50.390;30.778;2023-04-24T07:10:49;8.45;;;2.80;;
46447;SDS011;32145;50.390;30.778;2023-04-24T07:13:45;4.28;;;2.70;;
46447;SDS011;32145;50.390;30.778;2023-04-24T07:16:39;5.95;;;2.40;;
46447;SDS011;32145;50.390;30.778;2023-04-24T07:19:34;4.50;;;2.58;;
46447;SDS011;32145;50.390;30.778;2023-04-24T07:22:28;3.42;;;2.20;;
46447;SDS011;32145;50.390;30.778;2023-04-24T07:25:22;4.35;;;2.40;;
46447;SDS011;32145;50.390;30.778;2023-04-24T07:28:17;3.63;;;1.95;;
46447;SDS011;32145;50.390;30.778;2023-04-24T07:31:12;4.30;;;2.10;;
46447;SDS011;32145;50.390;30.778;2023-04-24T07:34:06;6.53;;;2.20;;
46447;SDS011;32145;50.390;30.778;2023-04-24T07:37:01;3.20;;;2.00;;
46447;SDS011;32145;50.390;30.778;2023-04-24T07:39:57;3.15;;;1.90;;
46447;SDS011;32145;50.390;30.778;2023-04-24T07:42:53;2.92;;;1.70;;
46447;SDS011;32145;50.390;30.778;2023-04-24T07:45:50;4.75;;;2.03;;
46447;SDS011;32145;50.390;30.778;2023-04-24T07:48:48;3.30;;;1.90;;
46447;SDS011;32145;50.390;30.778;2023-04-24T07:51:44;4.43;;;2.00;;
46447;SDS011;32145;50.390;30.778;2023-04-24T07:54:38;3.20;;;2.00;;
46447;SDS011;32145;50.390;30.778;2023-04-24T07:57:33;5.18;;;2.00;;
46447;SDS011;32145;50.390;30.778;2023-04-24T08:00:27;3.63;;;1.80;;
46447;SDS011;32145;50.390;30.778;2023-04-24T08:03:21;3.65;;;2.05;;
46447;SDS011;32145;50.390;30.778;2023-04-24T08:06:17;4.47;;;2.30;;
46447;SDS011;32145;50.390;30.778;2023-04-24T08:09:11;5.25;;;2.13;;
46447;SDS011;32145;50.390;30.778;2023-04-24T08:12:07;4.38;;;2.22;;
46447;SDS011;32145;50.390;30.778;2023-04-24T08:15:04;4.72;;;2.20;;
46447;SDS011;32145;50.390;30.778;2023-04-24T08:17:59;4.32;;;2.50;;
46447;SDS011;32145;50.390;30.778;2023-04-24T08:20:54;4.32;;;2.10;;
46447;SDS011;32145;50.390;30.778;2023-04-24T08:23:49;4.53;;;2.25;;
46447;SDS011;32145;50.390;30.778;2023-04-24T08:26:43;4.57;;;2.17;;
46447;SDS011;32145;50.390;30.778;2023-04-24T08:29:38;4.53;;;2.50;;
46447;SDS011;32145;50.390;30.778;2023-04-24T08:32:32;6.53;;;2.20;;
46447;SDS011;32145;50.390;30.778;2023-04-24T08:35:28;3.40;;;2.10;;
46447;SDS011;32145;50.390;30.778;2023-04-24T08:38:25;3.88;;;2.25;;
46447;SDS011;32145;50.390;30.778;2023-04-24T08:41:22;3.70;;;1.75;;
46447;SDS011;32145;50.390;30.778;2023-04-24T08:44:19;6.70;;;1.85;;
46447;SDS011;32145;50.390;30.778;2023-04-24T08:47:16;8.20;;;1.80;;
46447;SDS011;32145;50.390;30.778;2023-04-24T08:50:12;3.03;;;1.80;;
46447;SDS011;32145;50.390;30.778;2023-04-24T08:53:08;2.88;;;1.70;;
46447;SDS011;32145;50.390;30.778;2023-04-24T08:56:05;4.50;;;1.50;;
46447;SDS011;32145;50.390;30.778;2023-04-24T08:59:03;4.13;;;1.85;;
46447;SDS011;32145;50.390;30.778;2023-04-24T09:02:00;3.42;;;1.75;;
46447;SDS011;32145;50.390;30.778;2023-04-24T09:04:59;5.30;;;1.70;;
46447;SDS011;32145;50.390;30.778;2023-04-24T09:07:57;3.28;;;1.80;;
46447;SDS011;32145;50.390;30.778;2023-04-24T09:10:55;2.90;;;1.73;;
46447;SDS011;32145;50.390;30.778;2023-04-24T09:13:49;3.00;;;1.63;;
46447;SDS011;32145;50.390;30.778;2023-04-24T09:16:46;3.63;;;1.92;;
46447;SDS011;32145;50.390;30.778;2023-04-24T09:19:41;3.40;;;1.90;;
46447;SDS011;32145;50.390;30.778;2023-04-24T09:22:35;4.68;;;1.73;;
46447;SDS011;32145;50.390;30.778;2023-04-24T09:25:31;4.00;;;2.08;;
46447;SDS011;32145;50.390;30.778;2023-04-24T09:28:27;3.47;;;1.80;;
46447;SDS011;32145;50.390;30.778;2023-04-24T09:31:24;4.47;;;1.92;;
46447;SDS011;32145;50.390;30.778;2023-04-24T09:34:24;3.08;;;1.88;;
46447;SDS011;32145;50.390;30.778;2023-04-24T09:37:28;2.95;;;1.92;;
46447;SDS011;32145;50.390;30.778;2023-04-24T09:40:25;3.30;;;1.98;;
46447;SDS011;32145;50.390;30.778;2023-04-24T09:43:22;3.17;;;1.90;;
46447;SDS011;32145;50.390;30.778;2023-04-24T09:46:18;3.58;;;1.98;;
46447;SDS011;32145;50.390;30.778;2023-04-24T09:49:20;4.32;;;2.10;;
46447;SDS011;32145;50.390;30.778;2023-04-24T09:52:11;3.53;;;2.33;;
46447;SDS011;32145;50.390;30.778;2023-04-24T09:55:02;3.58;;;2.20;;
46447;SDS011;32145;50.390;30.778;2023-04-24T09:58:04;3.53;;;1.95;;
46447;SDS011;32145;50.390;30.778;2023-04-24T10:01:00;3.80;;;2.05;;
46447;SDS011;32145;50.390;30.778;2023-04-24T10:03:50;4.00;;;2.17;;
46447;SDS011;32145;50.390;30.778;2023-04-24T10:06:45;4.00;;;2.00;;
46447;SDS011;32145;50.390;30.778;2023-04-24T10:09:43;7.97;;;3.00;;
46447;SDS011;32145;50.390;30.778;2023-04-24T10:12:33;6.75;;;2.95;;
46447;SDS011;32145;50.390;30.778;2023-04-24T10:15:28;5.22;;;2.83;;
46447;SDS011;32145;50.390;30.778;2023-04-24T10:18:23;4.00;;;2.22;;
46447;SDS011;32145;50.390;30.778;2023-04-24T10:21:18;3.50;;;2.00;;
46447;SDS011;32145;50.390;30.778;2023-04-24T10:24:13;3.20;;;1.80;;
46447;SDS011;32145;50.390;30.778;2023-04-24T10:27:09;4.63;;;2.05;;
46447;SDS011;32145;50.390;30.778;2023-04-24T10:29:57;5.38;;;1.90;;
46447;SDS011;32145;50.390;30.778;2023-04-24T10:32:49;3.50;;;2.05;;
46447;SDS011;32145;50.390;30.778;2023-04-24T10:35:38;4.00;;;1.88;;
46447;SDS011;32145;50.390;30.778;2023-04-24T10:38:41;3.70;;;1.73;;
46447;SDS011;32145;50.390;30.778;2023-04-24T10:41:38;3.15;;;1.85;;
46447;SDS011;32145;50.390;30.778;2023-04-24T10:44:39;4.20;;;2.03;;
46447;SDS011;32145;50.390;30.778;2023-04-24T10:47:40;4.57;;;1.90;;
46447;SDS011;32145;50.390;30.778;2023-04-24T10:50:41;3.75;;;1.77;;
46447;SDS011;32145;50.390;30.778;2023-04-24T10:53:37;4.68;;;1.80;;
46447;SDS011;32145;50.390;30.778;2023-04-24T10:56:32;4.78;;;1.92;;
46447;SDS011;32145;50.390;30.778;2023-04-24T10:59:34;5.60;;;2.33;;
46447;SDS011;32145;50.390;30.778;2023-04-24T11:02:36;5.18;;;2.30;;
46447;SDS011;32145;50.390;30.778;2023-04-24T11:05:50;4.90;;;1.90;;
46447;SDS011;32145;50.390;30.778;2023-04-24T11:08:48;4.68;;;2.25;;
46447;SDS011;32145;50.390;30.778;2023-04-24T11:11:45;3.50;;;1.92;;
46447;SDS011;32145;50.390;30.778;2023-04-24T11:14:59;3.25;;;1.90;;
46447;SDS011;32145;50.390;30.778;2023-04-24T11:17:57;2.55;;;1.60;;
46447;SDS011;32145;50.390;30.778;2023-04-24T11:20:54;2.90;;;1.55;;
46447;SDS011;32145;50.390;30.778;2023-04-24T11:23:51;4.97;;;1.77;;
46447;SDS011;32145;50.390;30.778;2023-04-24T11:26:46;4.05;;;1.90;;
46447;SDS011;32145;50.390;30.778;2023-04-24T11:29:41;3.88;;;2.05;;
46447;SDS011;32145;50.390;30.778;2023-04-24T11:32:40;2.75;;;1.92;;
46447;SDS011;32145;50.390;30.778;2023-04-24T11:35:40;3.67;;;2.05;;
46447;SDS011;32145;50.390;30.778;2023-04-24T11:38:30;4.10;;;1.85;;
46447;SDS011;32145;50.390;30.778;2023-04-24T11:41:25;4.20;;;2.20;;
46447;SDS011;32145;50.390;30.778;2023-04-24T11:44:20;3.92;;;1.77;;
46447;SDS011;32145;50.390;30.778;2023-04-24T11:47:16;3.38;;;1.90;;
46447;SDS011;32145;50.390;30.778;2023-04-24T11:50:11;4.07;;;1.80;;
46447;SDS011;32145;50.390;30.778;2023-04-24T11:53:08;3.83;;;1.90;;
46447;SDS011;32145;50.390;30.778;2023-04-24T11:56:02;3.00;;;2.08;;
46447;SDS011;32145;50.390;30.778;2023-04-24T11:58:57;3.35;;;1.90;;
46447;SDS011;32145;50.390;30.778;2023-04-24T12:01:53;4.35;;;2.10;;
46447;SDS011;32145;50.390;30.778;2023-04-24T12:04:49;4.35;;;2.10;;
46447;SDS011;32145;50.390;30.778;2023-04-24T12:07:46;3.50;;;1.98;;
46447;SDS011;32145;50.390;30.778;2023-04-24T12:10:44;3.70;;;2.28;;
46447;SDS011;32145;50.390;30.778;2023-04-24T12:13:40;3.38;;;1.98;;
46447;SDS011;32145;50.390;30.778;2023-04-24T12:16:36;4.40;;;2.20;;
46447;SDS011;32145;50.390;30.778;2023-04-24T12:19:33;4.70;;;2.00;;
46447;SDS011;32145;50.390;30.778;2023-04-24T12:22:42;5.90;;;2.40;;
46447;SDS011;32145;50.390;30.778;2023-04-24T12:25:38;3.83;;;2.10;;
46447;SDS011;32145;50.390;30.778;2023-04-24T12:28:35;4.82;;;2.13;;
46447;SDS011;32145;50.390;30.778;2023-04-24T12:31:30;3.40;;;2.03;;
46447;SDS011;32145;50.390;30.778;2023-04-24T12:34:25;6.13;;;2.20;;
46447;SDS011;32145;50.390;30.778;2023-04-24T12:37:19;4.70;;;2.88;;
46447;SDS011;32145;50.390;30.778;2023-04-24T12:40:14;4.38;;;2.03;;
46447;SDS011;32145;50.390;30.778;2023-04-24T12:43:15;4.95;;;2.10;;
46447;SDS011;32145;50.390;30.778;2023-04-24T12:46:13;3.80;;;2.10;;
46447;SDS011;32145;50.390;30.778;2023-04-24T12:48:57;2.38;;;1.60;;
46447;SDS011;32145;50.390;30.778;2023-04-24T12:51:41;3.95;;;2.13;;
46447;SDS011;32145;50.390;30.778;2023-04-24T12:54:37;3.10;;;2.10;;
46447;SDS011;32145;50.390;30.778;2023-04-24T12:57:21;4.00;;;2.30;;
46447;SDS011;32145;50.390;30.778;2023-04-24T13:00:06;5.82;;;2.42;;
46447;SDS011;32145;50.390;30.778;2023-04-24T13:02:53;4.32;;;2.53;;
46447;SDS011;32145;50.390;30.778;2023-04-24T13:05:47;4.22;;;2.10;;
46447;SDS011;32145;50.390;30.778;2023-04-24T13:08:31;3.85;;;2.40;;
46447;SDS011;32145;50.390;30.778;2023-04-24T13:11:22;3.30;;;2.30;;
46447;SDS011;32145;50.390;30.778;2023-04-24T13:14:16;4.18;;;2.10;;
46447;SDS011;32145;50.390;30.778;2023-04-24T13:17:14;5.55;;;2.30;;
46447;SDS011;32145;50.390;30.778;2023-04-24T13:20:03;4.25;;;2.30;;
46447;SDS011;32145;50.390;30.778;2023-04-24T13:23:00;3.70;;;2.30;;
46447;SDS011;32145;50.390;30.778;2023-04-24T13:25:57;3.78;;;2.08;;
46447;SDS011;32145;50.390;30.778;2023-04-24T13:28:51;3.70;;;2.05;;
46447;SDS011;32145;50.390;30.778;2023-04-24T13:31:45;5.40;;;2.03;;
46447;SDS011;32145;50.390;30.778;2023-04-24T13:34:44;4.57;;;2.20;;
46447;SDS011;32145;50.390;30.778;2023-04-24T13:37:41;6.80;;;2.22;;
46447;SDS011;32145;50.390;30.778;2023-04-24T13:40:25;5.10;;;2.47;;
46447;SDS011;32145;50.390;30.778;2023-04-24T13:43:20;5.32;;;2.50;;
46447;SDS011;32145;50.390;30.778;2023-04-24T13:46:16;3.22;;;2.15;;
46447;SDS011;32145;50.390;30.778;2023-04-24T13:49:13;4.72;;;2.40;;
46447;SDS011;32145;50.390;30.778;2023-04-24T13:52:08;4.97;;;2.25;;
46447;SDS011;32145;50.390;30.778;2023-04-24T13:55:04;3.78;;;2.47;;
46447;SDS011;32145;50.390;30.778;2023-04-24T13:57:53;4.68;;;2.50;;
46447;SDS011;32145;50.390;30.778;2023-04-24T14:00:51;5.68;;;2.50;;
46447;SDS011;32145;50.390;30.778;2023-04-24T14:03:41;4.72;;;2.10;;
46447;SDS011;32145;50.390;30.778;2023-04-24T14:06:31;4.13;;;2.30;;
46447;SDS011;32145;50.390;30.778;2023-04-24T14:09:25;4.65;;;2.25;;
46447;SDS011;32145;50.390;30.778;2023-04-24T14:12:24;6.35;;;2.40;;
46447;SDS011;32145;50.390;30.778;2023-04-24T14:15:20;11.95;;;6.60;;
46447;SDS011;32145;50.390;30.778;2023-04-24T14:18:09;7.88;;;4.35;;
46447;SDS011;32145;50.390;30.778;2023-04-24T14:21:06;4.07;;;2.63;;
46447;SDS011;32145;50.390;30.778;2023-04-24T14:24:00;4.30;;;2.13;;
46447;SDS011;32145;50.390;30.778;2023-04-24T14:26:48;4.57;;;2.15;;
46447;SDS011;32145;50.390;30.778;2023-04-24T14:29:40;3.05;;;2.20;;
46447;SDS011;32145;50.390;30.778;2023-04-24T14:32:29;4.05;;;2.38;;
46447;SDS011;32145;50.390;30.778;2023-04-24T14:35:19;5.28;;;2.67;;
46447;SDS011;32145;50.390;30.778;2023-04-24T14:38:07;3.13;;;2.00;;
46447;SDS011;32145;50.390;30.778;2023-04-24T14:41:03;6.15;;;2.83;;
46447;SDS011;32145;50.390;30.778;2023-04-24T14:44:00;6.03;;;2.83;;
46447;SDS011;32145;50.390;30.778;2023-04-24T14:46:58;6.30;;;2.65;;
46447;SDS011;32145;50.390;30.778;2023-04-24T14:49:46;4.63;;;2.42;;
46447;SDS011;32145;50.390;30.778;2023-04-24T14:52:43;5.03;;;2.50;;
46447;SDS011;32145;50.390;30.778;2023-04-24T14:55:38;4.88;;;2.40;;
46447;SDS011;32145;50.390;30.778;2023-04-24T14:58:32;4.60;;;2.50;;
46447;SDS011;32145;50.390;30.778;2023-04-24T15:01:27;3.90;;;1.90;;
46447;SDS011;32145;50.390;30.778;2023-04-24T15:04:22;3.72;;;2.08;;
46447;SDS011;32145;50.390;30.778;2023-04-24T15:07:13;4.00;;;2.30;;
46447;SDS011;32145;50.390;30.778;2023-04-24T15:10:03;3.00;;;1.80;;
46447;SDS011;32145;50.390;30.778;2023-04-24T15:12:59;4.25;;;2.17;;
46447;SDS011;32145;50.390;30.778;2023-04-24T15:15:49;4.95;;;2.30;;
46447;SDS011;32145;50.390;30.778;2023-04-24T15:18:44;5.07;;;2.17;;
46447;SDS011;32145;50.390;30.778;2023-04-24T15:21:35;7.27;;;2.20;;
46447;SDS011;32145;50.390;30.778;2023-04-24T15:24:32;3.25;;;1.80;;
46447;SDS011;32145;50.390;30.778;2023-04-24T15:27:21;3.90;;;2.00;;
46447;SDS011;32145;50.390;30.778;2023-04-24T15:30:17;7.35;;;1.80;;
46447;SDS011;32145;50.390;30.778;2023-04-24T15:33:14;4.05;;;2.30;;
46447;SDS011;32145;50.390;30.778;2023-04-24T15:36:04;3.05;;;1.90;;
46447;SDS011;32145;50.390;30.778;2023-04-24T15:39:00;4.43;;;2.35;;
46447;SDS011;32145;50.390;30.778;2023-04-24T15:41:57;3.90;;;2.13;;
46447;SDS011;32145;50.390;30.778;2023-04-24T15:44:55;6.10;;;2.17;;
46447;SDS011;32145;50.390;30.778;2023-04-24T15:47:51;4.07;;;2.50;;
46447;SDS011;32145;50.390;30.778;2023-04-24T15:50:48;4.82;;;2.25;;
46447;SDS011;32145;50.390;30.778;2023-04-24T15:53:45;4.05;;;2.30;;
46447;SDS011;32145;50.390;30.778;2023-04-24T15:56:35;5.50;;;2.50;;
46447;SDS011;32145;50.390;30.778;2023-04-24T15:59:31;5.00;;;2.97;;
46447;SDS011;32145;50.390;30.778;2023-04-24T16:02:28;5.80;;;2.80;;
46447;SDS011;32145;50.390;30.778;2023-04-24T16:05:24;5.88;;;2.80;;
46447;SDS011;32145;50.390;30.778;2023-04-24T16:08:20;4.95;;;2.50;;
46447;SDS011;32145;50.390;30.778;2023-04-24T16:11:17;4.18;;;2.70;;
46447;SDS011;32145;50.390;30.778;2023-04-24T16:14:15;5.15;;;3.40;;
46447;SDS011;32145;50.390;30.778;2023-04-24T16:17:09;5.15;;;3.10;;
46447;SDS011;32145;50.390;30.778;2023-04-24T16:20:04;7.07;;;2.92;;
46447;SDS011;32145;50.390;30.778;2023-04-24T16:22:55;6.03;;;2.70;;
46447;SDS011;32145;50.390;30.778;2023-04-24T16:25:52;5.68;;;3.22;;
46447;SDS011;32145;50.390;30.778;2023-04-24T16:28:42;8.48;;;3.42;;
46447;SDS011;32145;50.390;30.778;2023-04-24T16:31:38;5.22;;;3.00;;
46447;SDS011;32145;50.390;30.778;2023-04-24T16:34:26;5.88;;;3.10;;
46447;SDS011;32145;50.390;30.778;2023-04-24T16:37:17;7.38;;;3.03;;
46447;SDS011;32145;50.390;30.778;2023-04-24T16:40:11;8.63;;;2.80;;
46447;SDS011;32145;50.390;30.778;2023-04-24T16:43:05;8.18;;;4.30;;
46447;SDS011;32145;50.390;30.778;2023-04-24T16:46:00;7.22;;;3.60;;
46447;SDS011;32145;50.390;30.778;2023-04-24T16:48:55;8.68;;;3.85;;
46447;SDS011;32145;50.390;30.778;2023-04-24T16:51:54;8.95;;;3.83;;
46447;SDS011;32145;50.390;30.778;2023-04-24T16:54:48;6.95;;;3.40;;
46447;SDS011;32145;50.390;30.778;2023-04-24T16:57:37;11.48;;;4.10;;
46447;SDS011;32145;50.390;30.778;2023-04-24T17:00:35;8.93;;;3.47;;
46447;SDS011;32145;50.390;30.778;2023-04-24T17:03:29;6.15;;;3.20;;
46447;SDS011;32145;50.390;30.778;2023-04-24T17:06:27;7.95;;;3.30;;
46447;SDS011;32145;50.390;30.778;2023-04-24T17:09:18;6.45;;;3.10;;
46447;SDS011;32145;50.390;30.778;2023-04-24T17:12:12;7.93;;;3.55;;
46447;SDS011;32145;50.390;30.778;2023-04-24T17:15:00;6.83;;;3.17;;